sensor_id;sensor_type;location;lat;lon;timestamp;P1;durP1;ratioP1;P2;durP2;ratioP2
5414;SDS011;2730;51.512;7.504;2022-08-01T05:05:18;24.57;;;14.10;;
5414;SDS011;2730;51.512;7.504;2022-08-01T05:07:45;23.63;;;14.90;;
5414;SDS011;2730;51.512;7.504;2022-08-01T05:10:12;23.50;;;14.27;;
5414;SDS011;2730;51.512;7.504;2022-08-01T05:12:39;19.87;;;13.10;;
5414;SDS011;2730;51.512;7.504;2022-08-01T05:15:06;20.70;;;14.30;;
5414;SDS011;2730;51.512;7.504;2022-08-01T05:17:34;25.23;;;14.83;;
5414;SDS011;2730;51.512;7.504;2022-08-01T05:20:01;22.60;;;14.37;;
5414;SDS011;2730;51.512;7.504;2022-08-01T05:22:29;29.57;;;15.53;;
5414;SDS011;2730;51.512;7.504;2022-08-01T05:24:56;25.70;;;15.20;;
5414;SDS011;2730;51.512;7.504;2022-08-01T05:27:24;22.60;;;13.50;;
5414;SDS011;2730;51.512;7.504;2022-08-01T05:29:51;25.17;;;14.70;;
5414;SDS011;2730;51.512;7.504;2022-08-01T05:32:18;26.93;;;16.33;;
5414;SDS011;2730;51.512;7.504;2022-08-01T05:34:45;27.50;;;15.90;;
5414;SDS011;2730;51.512;7.504;2022-08-01T05:37:12;34.23;;;16.27;;
5414;SDS011;2730;51.512;7.504;2022-08-01T05:39:40;28.87;;;16.93;;
5414;SDS011;2730;51.512;7.504;2022-08-01T05:42:07;28.60;;;18.60;;
5414;SDS011;2730;51.512;7.504;2022-08-01T05:44:34;31.90;;;20.80;;
5414;SDS011;2730;51.512;7.504;2022-08-01T05:47:01;27.33;;;17.30;;
5414;SDS011;2730;51.512;7.504;2022-08-01T05:49:28;31.57;;;17.87;;
5414;SDS011;2730;51.512;7.504;2022-08-01T05:51:55;28.40;;;18.10;;
5414;SDS011;2730;51.512;7.504;2022-08-01T05:54:22;31.80;;;18.73;;
5414;SDS011;2730;51.512;7.504;2022-08-01T05:56:51;25.67;;;15.83;;
5414;SDS011;2730;51.512;7.504;2022-08-01T05:59:18;23.33;;;16.20;;
5414;SDS011;2730;51.512;7.504;2022-08-01T06:01:45;23.33;;;15.10;;
5414;SDS011;2730;51.512;7.504;2022-08-01T06:04:12;24.77;;;15.33;;
5414;SDS011;2730;51.512;7.504;2022-08-01T06:06:39;25.47;;;15.60;;
5414;SDS011;2730;51.512;7.504;2022-08-01T06:09:06;26.60;;;16.00;;
5414;SDS011;2730;51.512;7.504;2022-08-01T06:11:32;22.27;;;15.53;;
5414;SDS011;2730;51.512;7.504;2022-08-01T06:14:01;22.80;;;13.30;;
5414;SDS011;2730;51.512;7.504;2022-08-01T06:16:27;23.83;;;13.53;;
5414;SDS011;2730;51.512;7.504;2022-08-01T06:18:54;23.90;;;13.67;;
5414;SDS011;2730;51.512;7.504;2022-08-01T06:21:21;18.97;;;12.90;;
5414;SDS011;2730;51.512;7.504;2022-08-01T06:23:48;18.70;;;12.50;;
5414;SDS011;2730;51.512;7.504;2022-08-01T06:26:17;16.70;;;11.70;;
5414;SDS011;2730;51.512;7.504;2022-08-01T06:28:44;18.20;;;11.37;;
5414;SDS011;2730;51.512;7.504;2022-08-01T06:31:12;13.93;;;9.80;;
5414;SDS011;2730;51.512;7.504;2022-08-01T06:33:40;18.17;;;11.10;;
5414;SDS011;2730;51.512;7.504;2022-08-01T06:36:07;14.87;;;10.23;;
5414;SDS011;2730;51.512;7.504;2022-08-01T06:38:34;18.63;;;11.17;;
5414;SDS011;2730;51.512;7.504;2022-08-01T06:41:01;15.20;;;10.80;;
5414;SDS011;2730;51.512;7.504;2022-08-01T06:43:28;16.03;;;10.13;;
5414;SDS011;2730;51.512;7.504;2022-08-01T06:45:56;15.80;;;9.50;;
5414;SDS011;2730;51.512;7.504;2022-08-01T06:48:24;13.40;;;9.93;;
5414;SDS011;2730;51.512;7.504;2022-08-01T06:50:51;11.17;;;8.63;;
5414;SDS011;2730;51.512;7.504;2022-08-01T06:53:32;14.73;;;9.80;;
5414;SDS011;2730;51.512;7.504;2022-08-01T06:56:00;17.50;;;11.10;;
5414;SDS011;2730;51.512;7.504;2022-08-01T06:58:27;14.07;;;9.20;;
5414;SDS011;2730;51.512;7.504;2022-08-01T07:00:54;24.20;;;9.80;;
5414;SDS011;2730;51.512;7.504;2022-08-01T07:03:20;10.37;;;8.83;;
5414;SDS011;2730;51.512;7.504;2022-08-01T07:05:49;10.00;;;8.23;;
5414;SDS011;2730;51.512;7.504;2022-08-01T07:08:15;14.03;;;8.83;;
5414;SDS011;2730;51.512;7.504;2022-08-01T07:10:42;10.70;;;8.80;;
5414;SDS011;2730;51.512;7.504;2022-08-01T07:13:09;10.57;;;7.80;;
5414;SDS011;2730;51.512;7.504;2022-08-01T07:15:37;8.60;;;7.30;;
5414;SDS011;2730;51.512;7.504;2022-08-01T07:18:04;11.03;;;7.40;;
5414;SDS011;2730;51.512;7.504;2022-08-01T07:20:30;8.23;;;6.57;;
5414;SDS011;2730;51.512;7.504;2022-08-01T07:22:59;9.40;;;6.80;;
5414;SDS011;2730;51.512;7.504;2022-08-01T07:25:26;7.60;;;6.80;;
5414;SDS011;2730;51.512;7.504;2022-08-01T07:27:52;8.77;;;7.07;;
5414;SDS011;2730;51.512;7.504;2022-08-01T07:30:19;8.80;;;7.47;;
5414;SDS011;2730;51.512;7.504;2022-08-01T07:32:46;9.77;;;6.70;;
5414;SDS011;2730;51.512;7.504;2022-08-01T07:35:14;8.60;;;7.10;;
5414;SDS011;2730;51.512;7.504;2022-08-01T07:37:41;8.03;;;6.83;;
5414;SDS011;2730;51.512;7.504;2022-08-01T07:40:10;8.07;;;7.30;;
5414;SDS011;2730;51.512;7.504;2022-08-01T07:42:37;7.93;;;6.97;;
5414;SDS011;2730;51.512;7.504;2022-08-01T07:45:04;8.03;;;7.23;;
5414;SDS011;2730;51.512;7.504;2022-08-01T07:47:31;7.40;;;5.90;;
5414;SDS011;2730;51.512;7.504;2022-08-01T07:49:59;7.00;;;6.37;;
5414;SDS011;2730;51.512;7.504;2022-08-01T07:52:26;6.63;;;6.07;;
5414;SDS011;2730;51.512;7.504;2022-08-01T07:54:54;6.70;;;6.20;;
5414;SDS011;2730;51.512;7.504;2022-08-01T07:57:23;7.87;;;7.07;;
5414;SDS011;2730;51.512;7.504;2022-08-01T07:59:50;8.70;;;7.93;;
5414;SDS011;2730;51.512;7.504;2022-08-01T08:02:17;8.33;;;7.00;;
5414;SDS011;2730;51.512;7.504;2022-08-01T08:04:44;8.73;;;7.93;;
5414;SDS011;2730;51.512;7.504;2022-08-01T08:07:11;9.03;;;7.60;;
5414;SDS011;2730;51.512;7.504;2022-08-01T08:09:37;7.73;;;7.13;;
5414;SDS011;2730;51.512;7.504;2022-08-01T08:12:05;7.60;;;6.90;;
5414;SDS011;2730;51.512;7.504;2022-08-01T08:14:33;7.30;;;6.60;;
5414;SDS011;2730;51.512;7.504;2022-08-01T08:17:00;8.17;;;6.67;;
5414;SDS011;2730;51.512;7.504;2022-08-01T08:19:27;7.83;;;7.13;;
5414;SDS011;2730;51.512;7.504;2022-08-01T08:21:54;9.07;;;7.37;;
5414;SDS011;2730;51.512;7.504;2022-08-01T08:24:21;7.70;;;6.83;;
5414;SDS011;2730;51.512;7.504;2022-08-01T08:26:49;9.60;;;7.63;;
5414;SDS011;2730;51.512;7.504;2022-08-01T08:29:18;7.10;;;6.40;;
5414;SDS011;2730;51.512;7.504;2022-08-01T08:31:46;6.50;;;5.90;;
5414;SDS011;2730;51.512;7.504;2022-08-01T08:34:13;5.43;;;5.03;;
5414;SDS011;2730;51.512;7.504;2022-08-01T08:36:40;5.37;;;4.97;;
5414;SDS011;2730;51.512;7.504;2022-08-01T08:39:07;5.20;;;4.90;;
5414;SDS011;2730;51.512;7.504;2022-08-01T08:41:34;5.80;;;5.20;;
5414;SDS011;2730;51.512;7.504;2022-08-01T08:44:02;3.70;;;3.50;;
5414;SDS011;2730;51.512;7.504;2022-08-01T08:46:29;4.77;;;4.03;;
5414;SDS011;2730;51.512;7.504;2022-08-01T08:49:00;4.40;;;4.00;;
5414;SDS011;2730;51.512;7.504;2022-08-01T08:51:30;3.70;;;3.50;;
5414;SDS011;2730;51.512;7.504;2022-08-01T08:53:59;4.10;;;3.70;;
5414;SDS011;2730;51.512;7.504;2022-08-01T08:56:28;3.30;;;3.10;;
5414;SDS011;2730;51.512;7.504;2022-08-01T08:58:59;3.50;;;3.30;;
5414;SDS011;2730;51.512;7.504;2022-08-01T09:01:27;2.90;;;2.70;;
5414;SDS011;2730;51.512;7.504;2022-08-01T09:03:54;2.73;;;2.60;;
5414;SDS011;2730;51.512;7.504;2022-08-01T09:06:23;2.00;;;1.90;;
5414;SDS011;2730;51.512;7.504;2022-08-01T09:08:50;2.90;;;2.80;;
5414;SDS011;2730;51.512;7.504;2022-08-01T09:11:17;3.33;;;3.03;;
5414;SDS011;2730;51.512;7.504;2022-08-01T09:13:47;3.70;;;2.60;;
5414;SDS011;2730;51.512;7.504;2022-08-01T09:16:28;2.60;;;2.50;;
5414;SDS011;2730;51.512;7.504;2022-08-01T09:19:05;2.50;;;2.30;;
5414;SDS011;2730;51.512;7.504;2022-08-01T09:21:35;3.43;;;3.17;;
5414;SDS011;2730;51.512;7.504;2022-08-01T09:24:02;3.03;;;2.83;;
5414;SDS011;2730;51.512;7.504;2022-08-01T09:26:31;3.87;;;3.63;;
5414;SDS011;2730;51.512;7.504;2022-08-01T09:29:00;3.20;;;3.00;;
5414;SDS011;2730;51.512;7.504;2022-08-01T09:31:38;3.60;;;3.40;;
5414;SDS011;2730;51.512;7.504;2022-08-01T09:34:06;6.17;;;3.30;;
5414;SDS011;2730;51.512;7.504;2022-08-01T09:36:46;2.80;;;2.60;;
5414;SDS011;2730;51.512;7.504;2022-08-01T09:39:16;2.90;;;2.70;;
5414;SDS011;2730;51.512;7.504;2022-08-01T09:41:44;2.60;;;2.40;;
5414;SDS011;2730;51.512;7.504;2022-08-01T09:44:12;1.90;;;1.80;;
5414;SDS011;2730;51.512;7.504;2022-08-01T09:46:49;2.53;;;2.33;;
5414;SDS011;2730;51.512;7.504;2022-08-01T09:49:26;2.90;;;2.53;;
5414;SDS011;2730;51.512;7.504;2022-08-01T09:51:56;1.80;;;1.70;;
5414;SDS011;2730;51.512;7.504;2022-08-01T09:54:27;2.13;;;1.93;;
5414;SDS011;2730;51.512;7.504;2022-08-01T09:57:06;1.70;;;1.60;;
5414;SDS011;2730;51.512;7.504;2022-08-01T09:59:34;1.87;;;1.60;;
5414;SDS011;2730;51.512;7.504;2022-08-01T10:02:02;1.90;;;1.80;;
5414;SDS011;2730;51.512;7.504;2022-08-01T10:04:29;1.33;;;1.23;;
5414;SDS011;2730;51.512;7.504;2022-08-01T10:07:03;1.63;;;1.23;;
5414;SDS011;2730;51.512;7.504;2022-08-01T10:09:32;1.90;;;1.80;;
5414;SDS011;2730;51.512;7.504;2022-08-01T10:12:00;1.50;;;1.40;;
5414;SDS011;2730;51.512;7.504;2022-08-01T10:14:28;1.53;;;1.13;;
5414;SDS011;2730;51.512;7.504;2022-08-01T10:16:56;1.33;;;1.23;;
5414;SDS011;2730;51.512;7.504;2022-08-01T10:19:24;1.50;;;1.40;;
5414;SDS011;2730;51.512;7.504;2022-08-01T10:21:53;5.13;;;1.83;;
5414;SDS011;2730;51.512;7.504;2022-08-01T10:24:23;1.30;;;1.20;;
5414;SDS011;2730;51.512;7.504;2022-08-01T10:26:51;1.33;;;1.23;;
5414;SDS011;2730;51.512;7.504;2022-08-01T10:29:22;1.27;;;1.17;;
5414;SDS011;2730;51.512;7.504;2022-08-01T10:31:51;1.13;;;1.03;;
5414;SDS011;2730;51.512;7.504;2022-08-01T10:34:18;1.47;;;1.10;;
5414;SDS011;2730;51.512;7.504;2022-08-01T10:36:46;2.90;;;1.10;;
5414;SDS011;2730;51.512;7.504;2022-08-01T10:39:13;2.00;;;1.20;;
5414;SDS011;2730;51.512;7.504;2022-08-01T10:41:42;3.80;;;1.10;;
5414;SDS011;2730;51.512;7.504;2022-08-01T10:44:09;1.30;;;1.20;;
5414;SDS011;2730;51.512;7.504;2022-08-01T10:46:37;3.03;;;1.07;;
5414;SDS011;2730;51.512;7.504;2022-08-01T10:49:06;1.30;;;1.20;;
5414;SDS011;2730;51.512;7.504;2022-08-01T10:51:36;2.93;;;1.43;;
5414;SDS011;2730;51.512;7.504;2022-08-01T10:54:05;1.60;;;1.50;;
5414;SDS011;2730;51.512;7.504;2022-08-01T10:56:38;1.77;;;1.67;;
5414;SDS011;2730;51.512;7.504;2022-08-01T10:59:07;1.97;;;1.73;;
5414;SDS011;2730;51.512;7.504;2022-08-01T11:01:34;4.70;;;1.20;;
5414;SDS011;2730;51.512;7.504;2022-08-01T11:04:06;1.70;;;1.60;;
5414;SDS011;2730;51.512;7.504;2022-08-01T11:06:42;1.37;;;1.27;;
5414;SDS011;2730;51.512;7.504;2022-08-01T11:09:19;2.50;;;1.40;;
5414;SDS011;2730;51.512;7.504;2022-08-01T11:11:59;1.73;;;1.33;;
5414;SDS011;2730;51.512;7.504;2022-08-01T11:14:32;2.17;;;1.27;;
5414;SDS011;2730;51.512;7.504;2022-08-01T11:20:03;1.33;;;1.23;;
5414;SDS011;2730;51.512;7.504;2022-08-01T11:22:31;1.83;;;1.20;;
5414;SDS011;2730;51.512;7.504;2022-08-01T11:24:58;1.63;;;1.53;;
5414;SDS011;2730;51.512;7.504;2022-08-01T11:27:26;3.50;;;1.57;;
5414;SDS011;2730;51.512;7.504;2022-08-01T11:32:52;1.30;;;1.20;;
5414;SDS011;2730;51.512;7.504;2022-08-01T11:35:20;1.17;;;1.07;;
5414;SDS011;2730;51.512;7.504;2022-08-01T11:37:50;1.30;;;1.20;;
5414;SDS011;2730;51.512;7.504;2022-08-01T11:40:18;0.90;;;0.90;;
5414;SDS011;2730;51.512;7.504;2022-08-01T11:42:46;1.27;;;0.90;;
5414;SDS011;2730;51.512;7.504;2022-08-01T11:45:13;0.97;;;0.97;;
5414;SDS011;2730;51.512;7.504;2022-08-01T11:47:45;1.00;;;1.00;;
5414;SDS011;2730;51.512;7.504;2022-08-01T11:50:29;1.10;;;1.00;;
5414;SDS011;2730;51.512;7.504;2022-08-01T11:52:57;0.90;;;0.80;;
5414;SDS011;2730;51.512;7.504;2022-08-01T11:55:25;1.27;;;1.17;;
5414;SDS011;2730;51.512;7.504;2022-08-01T11:57:58;1.33;;;1.10;;
5414;SDS011;2730;51.512;7.504;2022-08-01T12:00:26;0.70;;;0.70;;
5414;SDS011;2730;51.512;7.504;2022-08-01T12:02:58;0.90;;;0.90;;
5414;SDS011;2730;51.512;7.504;2022-08-01T12:05:26;0.90;;;0.90;;
5414;SDS011;2730;51.512;7.504;2022-08-01T12:07:54;0.97;;;0.97;;
5414;SDS011;2730;51.512;7.504;2022-08-01T12:10:22;0.97;;;0.97;;
5414;SDS011;2730;51.512;7.504;2022-08-01T12:12:50;1.00;;;0.90;;
5414;SDS011;2730;51.512;7.504;2022-08-01T12:15:19;1.10;;;1.10;;
5414;SDS011;2730;51.512;7.504;2022-08-01T12:17:49;2.90;;;1.33;;
5414;SDS011;2730;51.512;7.504;2022-08-01T12:20:20;1.30;;;1.20;;
5414;SDS011;2730;51.512;7.504;2022-08-01T12:22:52;1.47;;;1.20;;
5414;SDS011;2730;51.512;7.504;2022-08-01T12:25:20;1.93;;;1.40;;
5414;SDS011;2730;51.512;7.504;2022-08-01T12:27:47;1.30;;;1.30;;
5414;SDS011;2730;51.512;7.504;2022-08-01T12:30:15;1.40;;;1.30;;
5414;SDS011;2730;51.512;7.504;2022-08-01T12:32:44;1.10;;;1.00;;
5414;SDS011;2730;51.512;7.504;2022-08-01T12:35:12;1.00;;;1.00;;
5414;SDS011;2730;51.512;7.504;2022-08-01T12:37:43;1.30;;;1.10;;
5414;SDS011;2730;51.512;7.504;2022-08-01T12:40:12;1.10;;;1.00;;
5414;SDS011;2730;51.512;7.504;2022-08-01T12:42:42;0.97;;;0.97;;
5414;SDS011;2730;51.512;7.504;2022-08-01T12:45:12;1.23;;;1.13;;
5414;SDS011;2730;51.512;7.504;2022-08-01T12:47:41;1.90;;;1.13;;
5414;SDS011;2730;51.512;7.504;2022-08-01T12:50:10;1.10;;;1.00;;
5414;SDS011;2730;51.512;7.504;2022-08-01T12:52:39;1.33;;;1.23;;
5414;SDS011;2730;51.512;7.504;2022-08-01T12:55:09;1.57;;;1.17;;
5414;SDS011;2730;51.512;7.504;2022-08-01T12:57:39;1.50;;;1.40;;
5414;SDS011;2730;51.512;7.504;2022-08-01T13:00:17;1.10;;;1.00;;
5414;SDS011;2730;51.512;7.504;2022-08-01T13:02:46;2.17;;;1.20;;
5414;SDS011;2730;51.512;7.504;2022-08-01T13:05:14;1.43;;;1.33;;
5414;SDS011;2730;51.512;7.504;2022-08-01T13:07:43;1.20;;;1.10;;
5414;SDS011;2730;51.512;7.504;2022-08-01T13:10:25;1.00;;;1.00;;
5414;SDS011;2730;51.512;7.504;2022-08-01T13:12:53;1.77;;;0.90;;
5414;SDS011;2730;51.512;7.504;2022-08-01T13:15:25;1.20;;;1.07;;
5414;SDS011;2730;51.512;7.504;2022-08-01T13:17:56;1.00;;;1.00;;
5414;SDS011;2730;51.512;7.504;2022-08-01T13:20:25;1.87;;;0.93;;
5414;SDS011;2730;51.512;7.504;2022-08-01T13:23:10;1.07;;;1.07;;
5414;SDS011;2730;51.512;7.504;2022-08-01T13:25:52;1.20;;;1.10;;
5414;SDS011;2730;51.512;7.504;2022-08-01T13:28:21;1.10;;;1.07;;
5414;SDS011;2730;51.512;7.504;2022-08-01T13:30:53;1.20;;;1.20;;
5414;SDS011;2730;51.512;7.504;2022-08-01T13:33:21;1.87;;;1.00;;
5414;SDS011;2730;51.512;7.504;2022-08-01T13:35:49;1.00;;;1.00;;
5414;SDS011;2730;51.512;7.504;2022-08-01T13:38:17;1.40;;;1.30;;
5414;SDS011;2730;51.512;7.504;2022-08-01T13:40:44;2.27;;;1.20;;
5414;SDS011;2730;51.512;7.504;2022-08-01T13:43:13;1.67;;;1.30;;
5414;SDS011;2730;51.512;7.504;2022-08-01T13:45:40;1.67;;;1.30;;
5414;SDS011;2730;51.512;7.504;2022-08-01T13:48:08;2.97;;;1.10;;
5414;SDS011;2730;51.512;7.504;2022-08-01T13:50:35;6.00;;;1.23;;
5414;SDS011;2730;51.512;7.504;2022-08-01T13:53:02;2.00;;;1.20;;
5414;SDS011;2730;51.512;7.504;2022-08-01T13:55:29;2.40;;;1.23;;
5414;SDS011;2730;51.512;7.504;2022-08-01T13:57:55;1.30;;;1.20;;
5414;SDS011;2730;51.512;7.504;2022-08-01T14:00:24;2.00;;;1.90;;
5414;SDS011;2730;51.512;7.504;2022-08-01T14:02:50;1.40;;;1.30;;
5414;SDS011;2730;51.512;7.504;2022-08-01T14:05:17;1.30;;;1.20;;
5414;SDS011;2730;51.512;7.504;2022-08-01T14:07:44;1.50;;;1.40;;
5414;SDS011;2730;51.512;7.504;2022-08-01T14:10:11;1.57;;;1.47;;
5414;SDS011;2730;51.512;7.504;2022-08-01T14:12:38;1.40;;;1.30;;
5414;SDS011;2730;51.512;7.504;2022-08-01T14:15:05;1.30;;;1.20;;
5414;SDS011;2730;51.512;7.504;2022-08-01T14:17:35;2.13;;;2.00;;
5414;SDS011;2730;51.512;7.504;2022-08-01T14:20:02;2.30;;;2.07;;
5414;SDS011;2730;51.512;7.504;2022-08-01T14:22:30;2.93;;;2.63;;
5414;SDS011;2730;51.512;7.504;2022-08-01T14:24:57;2.23;;;2.03;;
5414;SDS011;2730;51.512;7.504;2022-08-01T14:27:24;2.60;;;2.40;;
5414;SDS011;2730;51.512;7.504;2022-08-01T14:29:51;2.40;;;2.10;;
5414;SDS011;2730;51.512;7.504;2022-08-01T14:32:18;1.87;;;1.77;;
5414;SDS011;2730;51.512;7.504;2022-08-01T14:34:46;1.80;;;1.70;;
5414;SDS011;2730;51.512;7.504;2022-08-01T14:37:13;2.60;;;1.80;;
5414;SDS011;2730;51.512;7.504;2022-08-01T14:39:39;3.57;;;1.40;;
5414;SDS011;2730;51.512;7.504;2022-08-01T14:42:06;1.70;;;1.40;;
5414;SDS011;2730;51.512;7.504;2022-08-01T14:44:33;1.70;;;1.60;;
5414;SDS011;2730;51.512;7.504;2022-08-01T14:47:00;1.87;;;1.40;;
5414;SDS011;2730;51.512;7.504;2022-08-01T14:49:27;1.50;;;1.40;;
5414;SDS011;2730;51.512;7.504;2022-08-01T14:51:55;1.70;;;1.60;;
5414;SDS011;2730;51.512;7.504;2022-08-01T14:54:22;1.50;;;1.40;;
5414;SDS011;2730;51.512;7.504;2022-08-01T14:56:49;1.60;;;1.50;;
5414;SDS011;2730;51.512;7.504;2022-08-01T14:59:17;4.70;;;1.87;;
5414;SDS011;2730;51.512;7.504;2022-08-01T15:01:44;4.57;;;1.47;;
5414;SDS011;2730;51.512;7.504;2022-08-01T15:04:11;1.57;;;1.47;;
5414;SDS011;2730;51.512;7.504;2022-08-01T15:06:39;1.53;;;1.43;;
5414;SDS011;2730;51.512;7.504;2022-08-01T15:09:07;2.37;;;1.60;;
5414;SDS011;2730;51.512;7.504;2022-08-01T15:11:34;2.20;;;1.47;;
5414;SDS011;2730;51.512;7.504;2022-08-01T15:14:01;2.20;;;2.00;;
5414;SDS011;2730;51.512;7.504;2022-08-01T15:16:45;1.80;;;1.60;;
5414;SDS011;2730;51.512;7.504;2022-08-01T15:19:12;3.10;;;1.93;;
5414;SDS011;2730;51.512;7.504;2022-08-01T15:21:42;2.23;;;2.03;;
5414;SDS011;2730;51.512;7.504;2022-08-01T15:24:10;3.10;;;1.80;;
5414;SDS011;2730;51.512;7.504;2022-08-01T15:26:37;3.60;;;2.17;;
5414;SDS011;2730;51.512;7.504;2022-08-01T15:29:04;1.80;;;1.70;;
5414;SDS011;2730;51.512;7.504;2022-08-01T15:31:31;2.97;;;2.13;;
5414;SDS011;2730;51.512;7.504;2022-08-01T15:33:58;2.00;;;1.90;;
5414;SDS011;2730;51.512;7.504;2022-08-01T15:36:25;2.50;;;1.80;;
5414;SDS011;2730;51.512;7.504;2022-08-01T15:38:52;3.57;;;1.67;;
5414;SDS011;2730;51.512;7.504;2022-08-01T15:41:21;1.77;;;1.67;;
5414;SDS011;2730;51.512;7.504;2022-08-01T15:43:50;2.03;;;1.90;;
5414;SDS011;2730;51.512;7.504;2022-08-01T15:46:20;5.50;;;2.70;;
5414;SDS011;2730;51.512;7.504;2022-08-01T15:48:46;3.03;;;2.83;;
5414;SDS011;2730;51.512;7.504;2022-08-01T15:51:13;2.10;;;2.00;;
5414;SDS011;2730;51.512;7.504;2022-08-01T15:53:40;2.87;;;2.60;;
5414;SDS011;2730;51.512;7.504;2022-08-01T15:56:07;6.00;;;2.73;;
5414;SDS011;2730;51.512;7.504;2022-08-01T15:58:35;6.00;;;2.33;;
5414;SDS011;2730;51.512;7.504;2022-08-01T16:01:02;4.10;;;1.87;;
5414;SDS011;2730;51.512;7.504;2022-08-01T16:03:29;1.80;;;1.70;;
5414;SDS011;2730;51.512;7.504;2022-08-01T16:05:56;2.73;;;2.07;;
5414;SDS011;2730;51.512;7.504;2022-08-01T16:08:23;3.10;;;1.87;;
5414;SDS011;2730;51.512;7.504;2022-08-01T16:10:50;3.57;;;2.37;;
5414;SDS011;2730;51.512;7.504;2022-08-01T16:13:17;2.80;;;2.57;;
5414;SDS011;2730;51.512;7.504;2022-08-01T16:15:45;6.57;;;2.27;;
5414;SDS011;2730;51.512;7.504;2022-08-01T16:18:12;5.20;;;2.80;;
5414;SDS011;2730;51.512;7.504;2022-08-01T16:20:40;3.40;;;2.43;;
5414;SDS011;2730;51.512;7.504;2022-08-01T16:23:07;2.37;;;2.17;;
5414;SDS011;2730;51.512;7.504;2022-08-01T16:25:34;3.90;;;2.70;;
5414;SDS011;2730;51.512;7.504;2022-08-01T16:28:02;2.73;;;2.53;;
5414;SDS011;2730;51.512;7.504;2022-08-01T16:30:29;2.27;;;2.07;;
5414;SDS011;2730;51.512;7.504;2022-08-01T16:32:57;3.23;;;3.03;;
5414;SDS011;2730;51.512;7.504;2022-08-01T16:35:24;2.90;;;2.70;;
5414;SDS011;2730;51.512;7.504;2022-08-01T16:37:51;4.17;;;2.80;;
5414;SDS011;2730;51.512;7.504;2022-08-01T16:40:18;6.20;;;3.17;;
5414;SDS011;2730;51.512;7.504;2022-08-01T16:42:45;2.77;;;2.57;;
5414;SDS011;2730;51.512;7.504;2022-08-01T16:45:11;4.20;;;2.10;;
5414;SDS011;2730;51.512;7.504;2022-08-01T16:47:39;2.80;;;2.60;;
5414;SDS011;2730;51.512;7.504;2022-08-01T16:50:08;2.83;;;2.50;;
5414;SDS011;2730;51.512;7.504;2022-08-01T16:52:35;2.40;;;2.20;;
5414;SDS011;2730;51.512;7.504;2022-08-01T16:55:02;2.30;;;2.20;;
5414;SDS011;2730;51.512;7.504;2022-08-01T16:57:29;5.10;;;2.00;;
5414;SDS011;2730;51.512;7.504;2022-08-01T17:00:01;2.83;;;1.80;;
5414;SDS011;2730;51.512;7.504;2022-08-01T17:02:29;2.47;;;2.30;;
5414;SDS011;2730;51.512;7.504;2022-08-01T17:04:56;2.37;;;2.17;;
5414;SDS011;2730;51.512;7.504;2022-08-01T17:07:24;2.27;;;2.07;;
5414;SDS011;2730;51.512;7.504;2022-08-01T17:09:51;5.27;;;3.00;;
5414;SDS011;2730;51.512;7.504;2022-08-01T17:12:18;2.97;;;2.43;;
5414;SDS011;2730;51.512;7.504;2022-08-01T17:14:45;6.13;;;3.50;;
5414;SDS011;2730;51.512;7.504;2022-08-01T17:17:12;4.37;;;2.33;;
5414;SDS011;2730;51.512;7.504;2022-08-01T17:19:39;2.27;;;2.10;;
5414;SDS011;2730;51.512;7.504;2022-08-01T17:22:06;5.70;;;2.77;;
5414;SDS011;2730;51.512;7.504;2022-08-01T17:24:34;4.10;;;2.37;;
5414;SDS011;2730;51.512;7.504;2022-08-01T17:27:01;2.80;;;2.60;;
5414;SDS011;2730;51.512;7.504;2022-08-01T17:29:28;4.40;;;2.53;;
5414;SDS011;2730;51.512;7.504;2022-08-01T17:31:55;3.50;;;2.13;;
5414;SDS011;2730;51.512;7.504;2022-08-01T17:34:22;2.30;;;2.13;;
5414;SDS011;2730;51.512;7.504;2022-08-01T17:36:49;2.57;;;2.10;;
5414;SDS011;2730;51.512;7.504;2022-08-01T17:39:16;3.77;;;2.80;;
5414;SDS011;2730;51.512;7.504;2022-08-01T17:41:45;8.37;;;2.77;;
5414;SDS011;2730;51.512;7.504;2022-08-01T17:44:12;4.10;;;2.33;;
5414;SDS011;2730;51.512;7.504;2022-08-01T17:46:38;4.07;;;2.50;;
5414;SDS011;2730;51.512;7.504;2022-08-01T17:49:05;4.10;;;3.70;;
5414;SDS011;2730;51.512;7.504;2022-08-01T17:51:32;3.57;;;3.27;;
5414;SDS011;2730;51.512;7.504;2022-08-01T17:53:59;3.47;;;2.93;;
5414;SDS011;2730;51.512;7.504;2022-08-01T17:56:26;7.40;;;2.73;;
5414;SDS011;2730;51.512;7.504;2022-08-01T17:58:54;3.77;;;2.43;;
5414;SDS011;2730;51.512;7.504;2022-08-01T18:01:21;5.00;;;3.50;;
5414;SDS011;2730;51.512;7.504;2022-08-01T18:03:49;3.37;;;2.40;;
5414;SDS011;2730;51.512;7.504;2022-08-01T18:06:17;2.67;;;2.47;;
5414;SDS011;2730;51.512;7.504;2022-08-01T18:08:44;3.00;;;2.80;;
5414;SDS011;2730;51.512;7.504;2022-08-01T18:11:11;3.07;;;2.70;;
5414;SDS011;2730;51.512;7.504;2022-08-01T18:13:38;4.30;;;2.43;;
5414;SDS011;2730;51.512;7.504;2022-08-01T18:16:07;2.50;;;2.10;;
5414;SDS011;2730;51.512;7.504;2022-08-01T18:18:36;7.83;;;2.70;;
5414;SDS011;2730;51.512;7.504;2022-08-01T18:21:04;5.37;;;3.20;;
5414;SDS011;2730;51.512;7.504;2022-08-01T18:23:31;6.30;;;3.00;;
5414;SDS011;2730;51.512;7.504;2022-08-01T18:25:59;14.80;;;3.73;;
5414;SDS011;2730;51.512;7.504;2022-08-01T18:28:26;6.00;;;2.57;;
5414;SDS011;2730;51.512;7.504;2022-08-01T18:30:53;4.77;;;3.30;;
5414;SDS011;2730;51.512;7.504;2022-08-01T18:33:22;5.60;;;3.37;;
5414;SDS011;2730;51.512;7.504;2022-08-01T18:35:49;5.13;;;3.53;;
5414;SDS011;2730;51.512;7.504;2022-08-01T18:38:16;3.73;;;2.83;;
5414;SDS011;2730;51.512;7.504;2022-08-01T18:40:42;6.03;;;2.60;;
5414;SDS011;2730;51.512;7.504;2022-08-01T18:43:09;4.30;;;2.60;;
5414;SDS011;2730;51.512;7.504;2022-08-01T18:45:37;2.60;;;2.40;;
5414;SDS011;2730;51.512;7.504;2022-08-01T18:48:04;3.17;;;2.77;;
5414;SDS011;2730;51.512;7.504;2022-08-01T18:50:32;2.83;;;2.20;;
5414;SDS011;2730;51.512;7.504;2022-08-01T18:52:59;5.40;;;3.20;;
5414;SDS011;2730;51.512;7.504;2022-08-01T18:55:26;8.13;;;3.03;;
5414;SDS011;2730;51.512;7.504;2022-08-01T18:57:53;3.50;;;2.53;;
5414;SDS011;2730;51.512;7.504;2022-08-01T19:00:20;3.40;;;2.83;;
5414;SDS011;2730;51.512;7.504;2022-08-01T19:02:46;3.77;;;2.60;;
5414;SDS011;2730;51.512;7.504;2022-08-01T19:05:13;5.80;;;3.30;;
5414;SDS011;2730;51.512;7.504;2022-08-01T19:07:41;3.60;;;2.20;;
5414;SDS011;2730;51.512;7.504;2022-08-01T19:10:08;9.07;;;2.70;;
5414;SDS011;2730;51.512;7.504;2022-08-01T19:12:36;3.20;;;2.90;;
5414;SDS011;2730;51.512;7.504;2022-08-01T19:15:03;4.67;;;2.80;;
5414;SDS011;2730;51.512;7.504;2022-08-01T19:17:31;8.37;;;2.80;;
5414;SDS011;2730;51.512;7.504;2022-08-01T19:19:58;2.73;;;2.53;;
5414;SDS011;2730;51.512;7.504;2022-08-01T19:22:24;3.53;;;3.07;;
5414;SDS011;2730;51.512;7.504;2022-08-01T19:24:52;5.20;;;3.07;;
5414;SDS011;2730;51.512;7.504;2022-08-01T19:27:20;5.77;;;3.07;;
5414;SDS011;2730;51.512;7.504;2022-08-01T19:29:50;8.93;;;3.30;;
5414;SDS011;2730;51.512;7.504;2022-08-01T19:32:18;6.07;;;3.30;;
5414;SDS011;2730;51.512;7.504;2022-08-01T19:34:47;7.60;;;3.43;;
5414;SDS011;2730;51.512;7.504;2022-08-01T19:37:20;3.53;;;3.20;;
5414;SDS011;2730;51.512;7.504;2022-08-01T19:39:47;3.30;;;2.70;;
5414;SDS011;2730;51.512;7.504;2022-08-01T19:42:16;4.70;;;3.30;;
5414;SDS011;2730;51.512;7.504;2022-08-01T19:44:43;6.87;;;3.30;;
5414;SDS011;2730;51.512;7.504;2022-08-01T19:47:11;4.33;;;3.30;;
5414;SDS011;2730;51.512;7.504;2022-08-01T19:49:40;7.97;;;3.53;;
5414;SDS011;2730;51.512;7.504;2022-08-01T19:52:06;5.67;;;3.13;;
5414;SDS011;2730;51.512;7.504;2022-08-01T19:54:36;7.97;;;3.70;;
5414;SDS011;2730;51.512;7.504;2022-08-01T19:57:06;11.13;;;4.50;;
5414;SDS011;2730;51.512;7.504;2022-08-01T19:59:35;10.27;;;4.83;;
5414;SDS011;2730;51.512;7.504;2022-08-01T20:02:03;6.57;;;2.90;;
5414;SDS011;2730;51.512;7.504;2022-08-01T20:04:31;8.10;;;4.83;;
5414;SDS011;2730;51.512;7.504;2022-08-01T20:06:58;7.90;;;3.67;;
5414;SDS011;2730;51.512;7.504;2022-08-01T20:09:27;8.40;;;4.13;;
5414;SDS011;2730;51.512;7.504;2022-08-01T20:11:54;6.70;;;3.00;;
5414;SDS011;2730;51.512;7.504;2022-08-01T20:14:22;9.97;;;2.80;;
5414;SDS011;2730;51.512;7.504;2022-08-01T20:16:52;7.80;;;3.03;;
5414;SDS011;2730;51.512;7.504;2022-08-01T20:19:20;8.30;;;3.27;;
5414;SDS011;2730;51.512;7.504;2022-08-01T20:21:49;8.27;;;3.37;;
5414;SDS011;2730;51.512;7.504;2022-08-01T20:24:19;8.30;;;5.63;;
5414;SDS011;2730;51.512;7.504;2022-08-01T20:26:48;10.27;;;4.50;;
5414;SDS011;2730;51.512;7.504;2022-08-01T20:29:17;4.07;;;3.10;;